sensor_id;sensor_type;location;lat;lon;timestamp;pressure;altitude;pressure_sealevel;temperature;humidity
41636;BME280;27623;51.966;4.602;2023-02-17T00:01:59;64234.56;;;10.00;100.00
41636;BME280;27623;51.966;4.602;2023-02-17T00:04:27;64204.97;;;9.92;100.00
41636;BME280;27623;51.966;4.602;2023-02-17T00:06:53;64231.31;;;9.90;100.00
41636;BME280;27623;51.966;4.602;2023-02-17T00:09:18;64219.69;;;9.84;100.00
41636;BME280;27623;51.966;4.602;2023-02-17T00:11:46;64196.44;;;9.79;100.00
41636;BME280;27623;51.966;4.602;2023-02-17T00:14:12;64220.06;;;9.82;100.00
41636;BME280;27623;51.966;4.602;2023-02-17T00:16:38;64222.22;;;9.84;100.00
41636;BME280;27623;51.966;4.602;2023-02-17T00:19:03;64224.22;;;9.84;100.00
41636;BME280;27623;51.966;4.602;2023-02-17T00:21:48;64221.50;;;9.81;100.00
41636;BME280;27623;51.966;4.602;2023-02-17T00:24:15;64198.84;;;9.55;100.00
41636;BME280;27623;51.966;4.602;2023-02-17T00:26:41;64188.69;;;9.55;100.00
41636;BME280;27623;51.966;4.602;2023-02-17T00:29:09;64199.59;;;9.51;100.00
41636;BME280;27623;51.966;4.602;2023-02-17T00:31:34;64156.00;;;9.39;100.00
41636;BME280;27623;51.966;4.602;2023-02-17T00:33:59;64204.31;;;9.39;100.00
41636;BME280;27623;51.966;4.602;2023-02-17T00:36:27;64203.75;;;9.60;100.00
41636;BME280;27623;51.966;4.602;2023-02-17T00:38:54;64212.09;;;9.63;100.00
41636;BME280;27623;51.966;4.602;2023-02-17T00:41:21;64170.47;;;9.64;100.00
41636;BME280;27623;51.966;4.602;2023-02-17T00:43:47;64189.22;;;9.56;100.00
41636;BME280;27623;51.966;4.602;2023-02-17T00:46:13;64181.06;;;9.55;100.00
41636;BME280;27623;51.966;4.602;2023-02-17T00:48:39;64184.31;;;9.51;100.00
41636;BME280;27623;51.966;4.602;2023-02-17T00:51:04;64202.28;;;9.68;100.00
41636;BME280;27623;51.966;4.602;2023-02-17T00:53:30;64159.97;;;9.52;100.00
41636;BME280;27623;51.966;4.602;2023-02-17T00:55:55;64166.38;;;9.35;100.00
41636;BME280;27623;51.966;4.602;2023-02-17T00:58:21;64180.31;;;9.52;100.00
41636;BME280;27623;51.966;4.602;2023-02-17T01:00:46;64147.09;;;9.50;100.00
41636;BME280;27623;51.966;4.602;2023-02-17T01:03:12;64179.59;;;9.42;100.00
41636;BME280;27623;51.966;4.602;2023-02-17T01:05:43;64118.03;;;9.42;100.00
41636;BME280;27623;51.966;4.602;2023-02-17T01:08:12;64175.44;;;9.48;100.00
41636;BME280;27623;51.966;4.602;2023-02-17T01:10:39;64154.34;;;9.38;100.00
41636;BME280;27623;51.966;4.602;2023-02-17T01:13:05;64197.59;;;9.45;100.00
41636;BME280;27623;51.966;4.602;2023-02-17T01:15:30;64191.59;;;9.53;100.00
41636;BME280;27623;51.966;4.602;2023-02-17T01:17:57;64157.09;;;9.33;100.00
41636;BME280;27623;51.966;4.602;2023-02-17T01:20:22;64166.16;;;9.39;100.00
41636;BME280;27623;51.966;4.602;2023-02-17T01:22:48;64165.81;;;9.41;100.00
41636;BME280;27623;51.966;4.602;2023-02-17T01:25:13;64164.34;;;9.42;100.00
41636;BME280;27623;51.966;4.602;2023-02-17T01:27:41;64194.13;;;9.39;100.00
41636;BME280;27623;51.966;4.602;2023-02-17T01:30:06;64159.25;;;9.42;100.00
41636;BME280;27623;51.966;4.602;2023-02-17T01:32:32;64180.31;;;9.45;100.00
41636;BME280;27623;51.966;4.602;2023-02-17T01:34:57;64178.34;;;9.46;100.00
41636;BME280;27623;51.966;4.602;2023-02-17T01:37:22;64215.91;;;9.59;100.00
41636;BME280;27623;51.966;4.602;2023-02-17T01:39:48;64183.75;;;9.58;100.00
41636;BME280;27623;51.966;4.602;2023-02-17T01:42:18;64174.69;;;9.45;100.00
41636;BME280;27623;51.966;4.602;2023-02-17T01:47:51;64203.38;;;9.62;100.00
41636;BME280;27623;51.966;4.602;2023-02-17T01:50:21;64175.97;;;9.48;100.00
41636;BME280;27623;51.966;4.602;2023-02-17T01:52:51;64158.53;;;9.39;100.00
41636;BME280;27623;51.966;4.602;2023-02-17T01:55:19;64169.81;;;9.33;100.00
41636;BME280;27623;51.966;4.602;2023-02-17T01:57:48;64160.91;;;9.37;100.00
41636;BME280;27623;51.966;4.602;2023-02-17T02:00:16;64178.16;;;9.43;100.00
41636;BME280;27623;51.966;4.602;2023-02-17T02:02:47;64175.56;;;9.57;100.00
41636;BME280;27623;51.966;4.602;2023-02-17T02:05:14;64140.19;;;9.53;100.00
41636;BME280;27623;51.966;4.602;2023-02-17T02:07:42;64159.81;;;9.43;100.00
41636;BME280;27623;51.966;4.602;2023-02-17T02:10:10;64149.84;;;9.31;100.00
41636;BME280;27623;51.966;4.602;2023-02-17T02:12:40;64177.75;;;9.59;100.00
41636;BME280;27623;51.966;4.602;2023-02-17T02:15:17;64193.03;;;9.52;100.00
41636;BME280;27623;51.966;4.602;2023-02-17T02:34:54;64154.56;;;9.33;100.00
41636;BME280;27623;51.966;4.602;2023-02-17T02:37:28;64201.25;;;9.32;100.00
41636;BME280;27623;51.966;4.602;2023-02-17T02:39:59;64177.59;;;9.43;100.00
41636;BME280;27623;51.966;4.602;2023-02-17T02:42:26;64168.53;;;9.37;100.00
41636;BME280;27623;51.966;4.602;2023-02-17T02:44:52;64183.25;;;9.36;100.00
41636;BME280;27623;51.966;4.602;2023-02-17T02:47:49;64173.28;;;9.32;100.00
41636;BME280;27623;51.966;4.602;2023-02-17T02:50:33;64154.19;;;9.42;100.00
41636;BME280;27623;51.966;4.602;2023-02-17T02:58:44;64140.56;;;9.37;100.00
41636;BME280;27623;51.966;4.602;2023-02-17T03:01:21;64166.53;;;9.44;100.00
41636;BME280;27623;51.966;4.602;2023-02-17T03:04:02;64204.84;;;9.40;100.00
41636;BME280;27623;51.966;4.602;2023-02-17T03:06:43;64178.16;;;9.36;100.00
41636;BME280;27623;51.966;4.602;2023-02-17T03:09:15;64198.69;;;9.53;100.00
41636;BME280;27623;51.966;4.602;2023-02-17T03:11:44;64179.97;;;9.40;100.00
41636;BME280;27623;51.966;4.602;2023-02-17T03:14:13;64193.03;;;9.45;100.00
41636;BME280;27623;51.966;4.602;2023-02-17T03:16:40;64191.94;;;9.51;100.00
41636;BME280;27623;51.966;4.602;2023-02-17T03:19:07;64228.63;;;9.59;100.00
41636;BME280;27623;51.966;4.602;2023-02-17T03:21:37;64176.50;;;9.56;100.00
41636;BME280;27623;51.966;4.602;2023-02-17T03:24:04;64215.38;;;9.66;100.00
41636;BME280;27623;51.966;4.602;2023-02-17T03:26:29;64178.31;;;9.53;100.00
41636;BME280;27623;51.966;4.602;2023-02-17T03:28:54;64174.13;;;9.58;100.00
41636;BME280;27623;51.966;4.602;2023-02-17T03:31:20;64175.38;;;9.62;100.00
41636;BME280;27623;51.966;4.602;2023-02-17T03:33:45;64189.38;;;9.65;100.00
41636;BME280;27623;51.966;4.602;2023-02-17T03:36:11;64212.63;;;9.71;100.00
41636;BME280;27623;51.966;4.602;2023-02-17T03:38:36;64235.72;;;9.73;100.00
41636;BME280;27623;51.966;4.602;2023-02-17T03:41:02;64218.09;;;9.69;100.00
41636;BME280;27623;51.966;4.602;2023-02-17T03:43:27;64217.00;;;9.75;100.00
41636;BME280;27623;51.966;4.602;2023-02-17T03:45:52;64192.78;;;9.85;100.00
41636;BME280;27623;51.966;4.602;2023-02-17T03:48:18;64229.50;;;9.79;100.00
41636;BME280;27623;51.966;4.602;2023-02-17T03:50:43;64210.09;;;9.71;100.00
41636;BME280;27623;51.966;4.602;2023-02-17T03:53:10;64240.06;;;9.84;100.00
41636;BME280;27623;51.966;4.602;2023-02-17T03:55:35;64233.69;;;9.88;100.00
41636;BME280;27623;51.966;4.602;2023-02-17T03:58:03;64243.69;;;9.78;100.00
41636;BME280;27623;51.966;4.602;2023-02-17T04:00:29;64226.22;;;9.83;100.00
41636;BME280;27623;51.966;4.602;2023-02-17T04:02:55;64221.50;;;9.88;100.00
41636;BME280;27623;51.966;4.602;2023-02-17T04:05:24;64242.94;;;9.89;100.00
41636;BME280;27623;51.966;4.602;2023-02-17T04:07:49;64231.13;;;9.95;100.00
41636;BME280;27623;51.966;4.602;2023-02-17T04:10:15;64260.22;;;9.89;100.00
41636;BME280;27623;51.966;4.602;2023-02-17T04:12:40;64238.22;;;9.87;100.00
41636;BME280;27623;51.966;4.602;2023-02-17T04:15:06;64240.78;;;9.80;100.00
41636;BME280;27623;51.966;4.602;2023-02-17T04:17:35;64221.88;;;9.86;100.00
41636;BME280;27623;51.966;4.602;2023-02-17T04:20:01;64231.69;;;9.95;100.00
41636;BME280;27623;51.966;4.602;2023-02-17T04:22:26;64257.28;;;9.98;100.00
41636;BME280;27623;51.966;4.602;2023-02-17T04:24:52;64269.69;;;9.86;100.00
41636;BME280;27623;51.966;4.602;2023-02-17T04:27:17;64241.88;;;9.88;100.00
41636;BME280;27623;51.966;4.602;2023-02-17T04:29:42;64227.50;;;9.94;100.00
41636;BME280;27623;51.966;4.602;2023-02-17T04:32:08;64240.03;;;9.91;100.00
41636;BME280;27623;51.966;4.602;2023-02-17T04:34:33;64250.56;;;10.04;100.00
41636;BME280;27623;51.966;4.602;2023-02-17T04:36:58;64251.69;;;9.90;100.00
41636;BME280;27623;51.966;4.602;2023-02-17T04:39:24;64247.66;;;9.98;100.00
41636;BME280;27623;51.966;4.602;2023-02-17T04:41:49;64261.66;;;10.02;100.00
41636;BME280;27623;51.966;4.602;2023-02-17T04:44:15;64248.91;;;10.02;100.00
41636;BME280;27623;51.966;4.602;2023-02-17T04:46:40;64254.75;;;9.98;100.00
41636;BME280;27623;51.966;4.602;2023-02-17T04:49:05;64280.00;;;10.10;100.00
41636;BME280;27623;51.966;4.602;2023-02-17T04:51:31;64259.09;;;10.02;100.00
41636;BME280;27623;51.966;4.602;2023-02-17T04:53:56;64236.75;;;10.03;100.00
41636;BME280;27623;51.966;4.602;2023-02-17T04:56:22;64274.59;;;9.97;100.00
41636;BME280;27623;51.966;4.602;2023-02-17T04:58:47;64265.09;;;10.08;100.00
41636;BME280;27623;51.966;4.602;2023-02-17T05:01:13;64279.47;;;10.02;100.00
41636;BME280;27623;51.966;4.602;2023-02-17T05:03:38;64245.66;;;9.99;100.00
41636;BME280;27623;51.966;4.602;2023-02-17T05:06:03;64273.84;;;10.02;100.00
41636;BME280;27623;51.966;4.602;2023-02-17T05:08:29;64259.66;;;10.03;100.00
41636;BME280;27623;51.966;4.602;2023-02-17T05:10:54;64253.66;;;10.04;100.00
41636;BME280;27623;51.966;4.602;2023-02-17T05:13:20;64292.94;;;10.05;100.00
41636;BME280;27623;51.966;4.602;2023-02-17T05:15:46;64223.66;;;10.05;100.00
41636;BME280;27623;51.966;4.602;2023-02-17T05:18:12;64252.75;;;10.06;100.00
41636;BME280;27623;51.966;4.602;2023-02-17T05:20:37;64306.75;;;10.13;100.00
41636;BME280;27623;51.966;4.602;2023-02-17T05:23:03;64216.38;;;10.03;100.00
41636;BME280;27623;51.966;4.602;2023-02-17T05:25:29;64279.84;;;10.07;100.00
41636;BME280;27623;51.966;4.602;2023-02-17T05:27:54;64246.56;;;10.05;100.00
41636;BME280;27623;51.966;4.602;2023-02-17T05:30:20;64256.91;;;10.07;100.00
41636;BME280;27623;51.966;4.602;2023-02-17T05:32:45;64235.81;;;10.04;100.00
41636;BME280;27623;51.966;4.602;2023-02-17T05:35:11;64262.91;;;10.13;100.00
41636;BME280;27623;51.966;4.602;2023-02-17T05:37:36;64246.56;;;10.12;100.00
41636;BME280;27623;51.966;4.602;2023-02-17T05:40:02;64323.28;;;10.10;100.00
41636;BME280;27623;51.966;4.602;2023-02-17T05:42:27;64248.53;;;10.18;100.00
41636;BME280;27623;51.966;4.602;2023-02-17T05:44:54;64284.53;;;10.23;100.00
41636;BME280;27623;51.966;4.602;2023-02-17T05:47:20;64263.81;;;10.18;100.00
41636;BME280;27623;51.966;4.602;2023-02-17T05:49:46;64267.81;;;10.17;100.00
41636;BME280;27623;51.966;4.602;2023-02-17T05:52:11;64265.47;;;10.13;100.00
41636;BME280;27623;51.966;4.602;2023-02-17T05:54:36;64263.47;;;10.13;100.00
41636;BME280;27623;51.966;4.602;2023-02-17T05:57:02;64219.28;;;10.08;100.00
41636;BME280;27623;51.966;4.602;2023-02-17T05:59:27;64253.66;;;10.04;100.00
41636;BME280;27623;51.966;4.602;2023-02-17T06:01:55;64259.28;;;10.05;100.00
41636;BME280;27623;51.966;4.602;2023-02-17T06:04:21;64267.81;;;10.10;100.00
41636;BME280;27623;51.966;4.602;2023-02-17T06:06:46;64299.84;;;10.09;100.00
41636;BME280;27623;51.966;4.602;2023-02-17T06:09:11;64276.56;;;10.04;100.00
41636;BME280;27623;51.966;4.602;2023-02-17T06:11:37;64253.28;;;10.13;100.00
41636;BME280;27623;51.966;4.602;2023-02-17T06:14:02;64286.91;;;10.14;100.00
41636;BME280;27623;51.966;4.602;2023-02-17T06:16:28;64281.66;;;10.18;100.00
41636;BME280;27623;51.966;4.602;2023-02-17T06:18:53;64258.00;;;10.22;100.00
41636;BME280;27623;51.966;4.602;2023-02-17T06:21:19;64294.72;;;10.23;100.00
41636;BME280;27623;51.966;4.602;2023-02-17T06:23:44;64250.38;;;10.15;100.00
41636;BME280;27623;51.966;4.602;2023-02-17T06:26:10;64278.00;;;10.24;100.00
41636;BME280;27623;51.966;4.602;2023-02-17T06:28:35;64280.38;;;10.22;100.00
41636;BME280;27623;51.966;4.602;2023-02-17T06:31:00;64327.09;;;10.27;100.00
41636;BME280;27623;51.966;4.602;2023-02-17T06:33:29;64276.72;;;10.21;100.00
41636;BME280;27623;51.966;4.602;2023-02-17T06:35:54;64304.00;;;10.32;100.00
41636;BME280;27623;51.966;4.602;2023-02-17T06:38:20;64249.25;;;10.21;100.00
41636;BME280;27623;51.966;4.602;2023-02-17T06:40:45;64252.34;;;10.22;100.00
41636;BME280;27623;51.966;4.602;2023-02-17T06:43:13;64249.81;;;10.29;100.00
41636;BME280;27623;51.966;4.602;2023-02-17T06:45:38;64298.00;;;10.26;100.00
41636;BME280;27623;51.966;4.602;2023-02-17T06:48:04;64276.34;;;10.30;100.00
41636;BME280;27623;51.966;4.602;2023-02-17T06:50:29;64304.19;;;10.27;100.00
41636;BME280;27623;51.966;4.602;2023-02-17T06:52:57;64292.88;;;10.41;100.00
41636;BME280;27623;51.966;4.602;2023-02-17T06:55:22;64295.25;;;10.38;100.00
41636;BME280;27623;51.966;4.602;2023-02-17T06:57:48;64301.59;;;10.42;100.00
41636;BME280;27623;51.966;4.602;2023-02-17T07:00:13;64326.75;;;10.37;100.00
41636;BME280;27623;51.966;4.602;2023-02-17T07:02:39;64282.91;;;10.36;100.00
41636;BME280;27623;51.966;4.602;2023-02-17T07:05:06;64301.28;;;10.37;100.00
41636;BME280;27623;51.966;4.602;2023-02-17T07:07:32;64277.03;;;10.47;100.00
41636;BME280;27623;51.966;4.602;2023-02-17T07:09:57;64302.53;;;10.40;100.00
41636;BME280;27623;51.966;4.602;2023-02-17T07:12:23;64287.22;;;10.47;100.00
41636;BME280;27623;51.966;4.602;2023-02-17T07:14:48;64303.59;;;10.48;100.00
41636;BME280;27623;51.966;4.602;2023-02-17T07:17:14;64321.59;;;10.58;100.00
41636;BME280;27623;51.966;4.602;2023-02-17T07:19:39;64309.06;;;10.46;100.00
41636;BME280;27623;51.966;4.602;2023-02-17T07:22:05;64335.25;;;10.56;100.00
41636;BME280;27623;51.966;4.602;2023-02-17T07:24:33;64340.16;;;10.61;100.00
41636;BME280;27623;51.966;4.602;2023-02-17T07:26:58;64317.44;;;10.49;100.00
41636;BME280;27623;51.966;4.602;2023-02-17T07:29:25;64306.69;;;10.49;100.00
41636;BME280;27623;51.966;4.602;2023-02-17T07:31:50;64318.72;;;10.46;100.00
41636;BME280;27623;51.966;4.602;2023-02-17T07:34:16;64293.25;;;10.46;100.00
41636;BME280;27623;51.966;4.602;2023-02-17T07:36:41;64294.72;;;10.38;100.00
41636;BME280;27623;51.966;4.602;2023-02-17T07:39:06;64280.16;;;10.33;100.00
41636;BME280;27623;51.966;4.602;2023-02-17T07:41:32;64279.63;;;10.33;100.00
41636;BME280;27623;51.966;4.602;2023-02-17T07:43:58;64318.75;;;10.31;100.00
41636;BME280;27623;51.966;4.602;2023-02-17T07:46:25;64287.81;;;10.33;100.00
41636;BME280;27623;51.966;4.602;2023-02-17T07:48:51;64299.63;;;10.35;100.00
41636;BME280;27623;51.966;4.602;2023-02-17T07:51:18;64278.34;;;10.29;100.00
41636;BME280;27623;51.966;4.602;2023-02-17T07:53:44;64274.91;;;10.31;100.00
41636;BME280;27623;51.966;4.602;2023-02-17T07:56:13;64319.09;;;10.29;100.00
41636;BME280;27623;51.966;4.602;2023-02-17T07:58:39;64298.19;;;10.36;100.00
41636;BME280;27623;51.966;4.602;2023-02-17T08:01:06;64304.72;;;10.28;100.00
41636;BME280;27623;51.966;4.602;2023-02-17T08:03:32;64293.66;;;10.22;100.00
41636;BME280;27623;51.966;4.602;2023-02-17T08:05:57;64267.63;;;10.29;100.00
41636;BME280;27623;51.966;4.602;2023-02-17T08:08:23;64284.38;;;10.28;100.00
41636;BME280;27623;51.966;4.602;2023-02-17T08:11:13;64257.09;;;10.24;100.00
41636;BME280;27623;51.966;4.602;2023-02-17T08:13:58;64313.66;;;10.24;100.00
41636;BME280;27623;51.966;4.602;2023-02-17T08:16:25;64309.28;;;10.27;100.00
41636;BME280;27623;51.966;4.602;2023-02-17T08:18:55;64313.66;;;10.31;100.00
41636;BME280;27623;51.966;4.602;2023-02-17T08:21:21;64316.00;;;10.36;100.00
41636;BME280;27623;51.966;4.602;2023-02-17T08:23:47;64275.44;;;10.31;100.00
41636;BME280;27623;51.966;4.602;2023-02-17T08:26:12;64309.63;;;10.40;100.00
41636;BME280;27623;51.966;4.602;2023-02-17T08:28:39;64318.19;;;10.38;100.00
41636;BME280;27623;51.966;4.602;2023-02-17T08:31:04;64330.91;;;10.45;100.00
41636;BME280;27623;51.966;4.602;2023-02-17T08:33:29;64328.53;;;10.48;100.00
41636;BME280;27623;51.966;4.602;2023-02-17T08:35:55;64308.88;;;10.51;100.00
41636;BME280;27623;51.966;4.602;2023-02-17T08:38:20;64289.97;;;10.43;100.00
41636;BME280;27623;51.966;4.602;2023-02-17T08:40:46;64299.06;;;10.49;100.00
41636;BME280;27623;51.966;4.602;2023-02-17T08:43:11;64304.34;;;10.44;100.00
41636;BME280;27623;51.966;4.602;2023-02-17T08:45:37;64324.34;;;10.46;100.00
41636;BME280;27623;51.966;4.602;2023-02-17T08:48:03;64318.72;;;10.46;100.00
41636;BME280;27623;51.966;4.602;2023-02-17T08:50:29;64333.25;;;10.57;100.00
41636;BME280;27623;51.966;4.602;2023-02-17T08:52:55;64314.53;;;10.51;100.00
41636;BME280;27623;51.966;4.602;2023-02-17T08:55:20;64340.69;;;10.61;100.00
41636;BME280;27623;51.966;4.602;2023-02-17T08:57:48;64349.44;;;10.62;100.00
41636;BME280;27623;51.966;4.602;2023-02-17T09:00:15;64331.81;;;10.58;100.00
41636;BME280;27623;51.966;4.602;2023-02-17T09:02:40;64323.75;;;10.67;100.00
41636;BME280;27623;51.966;4.602;2023-02-17T09:05:10;64330.72;;;10.57;100.00
41636;BME280;27623;51.966;4.602;2023-02-17T09:07:36;64372.38;;;10.62;100.00
41636;BME280;27623;51.966;4.602;2023-02-17T09:10:06;64315.94;;;10.64;100.00
41636;BME280;27623;51.966;4.602;2023-02-17T09:12:32;64329.03;;;10.62;100.00
41636;BME280;27623;51.966;4.602;2023-02-17T09:14:58;64322.50;;;10.63;100.00
41636;BME280;27623;51.966;4.602;2023-02-17T09:17:24;64317.25;;;10.47;100.00
41636;BME280;27623;51.966;4.602;2023-02-17T09:19:49;64307.97;;;10.52;100.00
41636;BME280;27623;51.966;4.602;2023-02-17T09:22:17;64310.88;;;10.50;100.00
41636;BME280;27623;51.966;4.602;2023-02-17T09:24:44;64338.34;;;10.57;100.00
41636;BME280;27623;51.966;4.602;2023-02-17T09:27:12;64315.06;;;10.59;100.00
41636;BME280;27623;51.966;4.602;2023-02-17T09:29:38;64305.41;;;10.52;100.00
41636;BME280;27623;51.966;4.602;2023-02-17T09:32:07;64288.31;;;10.48;100.00
41636;BME280;27623;51.966;4.602;2023-02-17T09:34:37;64321.06;;;10.50;100.00
41636;BME280;27623;51.966;4.602;2023-02-17T09:37:09;64310.16;;;10.47;100.00
41636;BME280;27623;51.966;4.602;2023-02-17T09:39:34;64326.31;;;10.60;100.00
41636;BME280;27623;51.966;4.602;2023-02-17T09:42:00;64308.50;;;10.53;100.00
41636;BME280;27623;51.966;4.602;2023-02-17T09:47:03;64328.34;;;10.52;100.00
41636;BME280;27623;51.966;4.602;2023-02-17T09:49:42;64351.28;;;10.59;100.00
41636;BME280;27623;51.966;4.602;2023-02-17T09:54:58;64345.97;;;10.71;100.00
41636;BME280;27623;51.966;4.602;2023-02-17T09:57:28;64376.00;;;10.71;100.00
41636;BME280;27623;51.966;4.602;2023-02-17T10:00:03;64379.25;;;10.88;100.00
41636;BME280;27623;51.966;4.602;2023-02-17T10:02:33;64324.47;;;10.77;100.00
41636;BME280;27623;51.966;4.602;2023-02-17T10:05:05;64315.19;;;10.76;100.00
41636;BME280;27623;51.966;4.602;2023-02-17T10:07:37;64368.53;;;10.80;100.00
41636;BME280;27623;51.966;4.602;2023-02-17T10:10:10;64362.13;;;10.84;100.00
41636;BME280;27623;51.966;4.602;2023-02-17T10:12:42;64334.44;;;10.89;100.00
41636;BME280;27623;51.966;4.602;2023-02-17T10:15:20;64388.72;;;10.85;100.00
41636;BME280;27623;51.966;4.602;2023-02-17T10:20:34;64361.94;;;10.81;100.00
41636;BME280;27623;51.966;4.602;2023-02-17T10:23:08;64345.56;;;10.87;100.00
41636;BME280;27623;51.966;4.602;2023-02-17T10:28:51;64328.25;;;10.95;100.00
41636;BME280;27623;51.966;4.602;2023-02-17T10:37:03;64391.94;;;11.02;100.00
41636;BME280;27623;51.966;4.602;2023-02-17T10:41:57;64375.94;;;10.99;100.00
41636;BME280;27623;51.966;4.602;2023-02-17T10:44:23;64389.63;;;10.97;100.00
41636;BME280;27623;51.966;4.602;2023-02-17T10:46:50;64345.72;;;10.97;100.00
41636;BME280;27623;51.966;4.602;2023-02-17T10:49:26;64354.09;;;11.00;100.00
41636;BME280;27623;51.966;4.602;2023-02-17T10:51:53;64347.19;;;10.96;100.00
41636;BME280;27623;51.966;4.602;2023-02-17T10:54:28;64408.19;;;11.00;100.00
41636;BME280;27623;51.966;4.602;2023-02-17T10:56:57;64349.03;;;10.86;100.00
41636;BME280;27623;51.966;4.602;2023-02-17T10:59:29;64369.25;;;10.76;100.00
41636;BME280;27623;51.966;4.602;2023-02-17T11:04:46;64325.56;;;10.78;100.00
41636;BME280;27623;51.966;4.602;2023-02-17T11:07:14;64359.06;;;10.69;100.00
41636;BME280;27623;51.966;4.602;2023-02-17T11:09:47;64325.75;;;10.66;100.00
41636;BME280;27623;51.966;4.602;2023-02-17T11:12:19;64350.72;;;10.59;100.00
41636;BME280;27623;51.966;4.602;2023-02-17T11:14:51;64350.69;;;10.66;100.00
41636;BME280;27623;51.966;4.602;2023-02-17T11:17:35;64331.03;;;10.69;100.00
41636;BME280;27623;51.966;4.602;2023-02-17T11:20:24;64317.41;;;10.63;100.00
41636;BME280;27623;51.966;4.602;2023-02-17T11:25:40;64388.56;;;10.61;100.00
41636;BME280;27623;51.966;4.602;2023-02-17T11:28:14;64319.94;;;10.63;100.00
41636;BME280;27623;51.966;4.602;2023-02-17T11:30:53;64350.16;;;10.73;100.00
41636;BME280;27623;51.966;4.602;2023-02-17T11:33:28;64345.97;;;10.71;100.00
41636;BME280;27623;51.966;4.602;2023-02-17T11:35:55;64349.44;;;10.70;100.00
41636;BME280;27623;51.966;4.602;2023-02-17T11:38:47;64345.25;;;10.68;100.00
41636;BME280;27623;51.966;4.602;2023-02-17T11:41:12;64321.56;;;10.72;100.00
41636;BME280;27623;51.966;4.602;2023-02-17T11:43:38;64360.53;;;10.68;100.00
41636;BME280;27623;51.966;4.602;2023-02-17T11:46:32;64364.16;;;10.76;100.00
41636;BME280;27623;51.966;4.602;2023-02-17T11:54:41;64347.75;;;10.82;100.00
41636;BME280;27623;51.966;4.602;2023-02-17T11:57:37;64357.59;;;10.77;100.00
41636;BME280;27623;51.966;4.602;2023-02-17T12:00:29;64358.53;;;10.76;100.00
41636;BME280;27623;51.966;4.602;2023-02-17T12:08:07;64378.19;;;10.80;100.00
41636;BME280;27623;51.966;4.602;2023-02-17T12:16:29;64355.38;;;10.89;100.00
41636;BME280;27623;51.966;4.602;2023-02-17T12:22:06;64385.44;;;10.89;100.00
41636;BME280;27623;51.966;4.602;2023-02-17T12:35:22;64390.88;;;11.01;100.00
41636;BME280;27623;51.966;4.602;2023-02-17T12:37:55;64402.16;;;11.09;100.00
41636;BME280;27623;51.966;4.602;2023-02-17T12:40:32;64371.00;;;11.01;100.00
41636;BME280;27623;51.966;4.602;2023-02-17T12:43:23;64388.50;;;11.03;100.00
41636;BME280;27623;51.966;4.602;2023-02-17T12:45:51;64412.16;;;11.07;100.00
41636;BME280;27623;51.966;4.602;2023-02-17T12:48:36;64380.84;;;11.03;100.00
41636;BME280;27623;51.966;4.602;2023-02-17T12:51:18;64383.22;;;11.01;100.00
41636;BME280;27623;51.966;4.602;2023-02-17T12:53:54;64400.69;;;11.10;100.00
41636;BME280;27623;51.966;4.602;2023-02-17T12:59:18;64394.13;;;11.04;100.00
41636;BME280;27623;51.966;4.602;2023-02-17T13:01:56;64391.78;;;11.07;100.00
41636;BME280;27623;51.966;4.602;2023-02-17T13:04:24;64401.25;;;11.03;100.00
41636;BME280;27623;51.966;4.602;2023-02-17T13:06:54;64387.78;;;11.00;100.00
41636;BME280;27623;51.966;4.602;2023-02-17T13:09:26;64394.91;;;11.00;100.00
41636;BME280;27623;51.966;4.602;2023-02-17T13:11:53;64412.91;;;11.02;100.00
41636;BME280;27623;51.966;4.602;2023-02-17T13:14:26;64363.91;;;11.02;100.00
41636;BME280;27623;51.966;4.602;2023-02-17T13:16:52;64400.69;;;11.10;100.00
41636;BME280;27623;51.966;4.602;2023-02-17T13:19:29;64410.16;;;11.14;100.00
41636;BME280;27623;51.966;4.602;2023-02-17T13:21:56;64385.56;;;11.20;100.00
41636;BME280;27623;51.966;4.602;2023-02-17T13:24:35;64385.38;;;11.17;100.00
41636;BME280;27623;51.966;4.602;2023-02-17T13:27:18;64423.09;;;11.17;100.00
41636;BME280;27623;51.966;4.602;2023-02-17T13:29:44;64407.78;;;11.17;100.00
41636;BME280;27623;51.966;4.602;2023-02-17T13:32:11;64424.19;;;11.18;100.00
41636;BME280;27623;51.966;4.602;2023-02-17T13:34:44;64362.75;;;11.22;100.00
41636;BME280;27623;51.966;4.602;2023-02-17T13:37:40;64389.22;;;11.14;100.00
41636;BME280;27623;51.966;4.602;2023-02-17T13:42:44;64385.56;;;11.20;100.00
41636;BME280;27623;51.966;4.602;2023-02-17T13:50:48;64379.69;;;11.24;100.00
41636;BME280;27623;51.966;4.602;2023-02-17T13:53:34;64424.31;;;11.34;100.00
41636;BME280;27623;51.966;4.602;2023-02-17T13:56:25;64432.38;;;11.18;100.00
41636;BME280;27623;51.966;4.602;2023-02-17T13:58:51;64409.25;;;11.16;100.00
41636;BME280;27623;51.966;4.602;2023-02-17T14:01:19;64407.38;;;11.26;100.00
41636;BME280;27623;51.966;4.602;2023-02-17T14:03:54;64438.00;;;11.33;100.00
41636;BME280;27623;51.966;4.602;2023-02-17T14:06:25;64387.91;;;11.24;100.00
41636;BME280;27623;51.966;4.602;2023-02-17T14:08:51;64392.09;;;11.26;100.00
41636;BME280;27623;51.966;4.602;2023-02-17T14:11:27;64392.09;;;11.26;100.00
41636;BME280;27623;51.966;4.602;2023-02-17T14:13:54;64422.69;;;11.26;100.00
41636;BME280;27623;51.966;4.602;2023-02-17T14:21:33;64418.09;;;11.48;100.00
41636;BME280;27623;51.966;4.602;2023-02-17T14:23:59;64443.97;;;11.53;100.00
41636;BME280;27623;51.966;4.602;2023-02-17T14:26:35;64426.66;;;11.46;100.00
41636;BME280;27623;51.966;4.602;2023-02-17T14:29:07;64443.59;;;11.48;100.00
41636;BME280;27623;51.966;4.602;2023-02-17T14:31:48;64468.94;;;11.52;100.00
41636;BME280;27623;51.966;4.602;2023-02-17T14:36:45;64446.88;;;11.58;100.00
41636;BME280;27623;51.966;4.602;2023-02-17T14:39:13;64475.81;;;11.70;100.00
41636;BME280;27623;51.966;4.602;2023-02-17T14:41:39;64445.91;;;11.66;100.00